createdAt,value
2023-05-16T00:01:47.148Z,21.00
2023-05-16T00:04:13.846Z,19.42
2023-05-16T00:06:40.746Z,18.95
2023-05-16T00:09:07.630Z,18.50
2023-05-16T00:11:34.447Z,18.33
2023-05-16T00:14:01.637Z,19.90
2023-05-16T00:16:30.241Z,20.83
2023-05-16T00:19:01.293Z,19.17
2023-05-16T00:23:54.510Z,18.65
2023-05-16T00:26:21.800Z,19.10
2023-05-16T00:28:48.559Z,19.75
2023-05-16T00:31:15.138Z,18.08
2023-05-16T00:33:41.625Z,16.98
2023-05-16T00:36:08.204Z,16.35
2023-05-16T00:38:34.774Z,16.20
2023-05-16T00:41:01.319Z,16.17
2023-05-16T00:43:27.962Z,13.90
2023-05-16T00:45:54.379Z,13.00
2023-05-16T00:48:20.927Z,14.88
2023-05-16T00:50:47.399Z,13.48
2023-05-16T00:53:13.880Z,13.35
2023-05-16T00:55:40.857Z,13.73
2023-05-16T00:58:07.357Z,14.27
2023-05-16T01:00:34.147Z,12.90
2023-05-16T01:03:01.118Z,12.93
2023-05-16T01:05:28.554Z,14.68
2023-05-16T01:07:55.434Z,13.68
2023-05-16T01:10:21.891Z,14.85
2023-05-16T01:13:08.668Z,13.95
2023-05-16T01:16:05.498Z,13.88
2023-05-16T01:18:54.017Z,14.10
2023-05-16T01:21:39.037Z,14.73
2023-05-16T01:24:16.110Z,14.57
2023-05-16T01:26:43.976Z,14.73
2023-05-16T01:29:10.759Z,13.60
2023-05-16T01:31:37.205Z,14.95
2023-05-16T01:34:03.760Z,14.75
2023-05-16T01:36:39.082Z,14.18
2023-05-16T01:39:14.943Z,13.52
2023-05-16T01:42:04.501Z,14.30
2023-05-16T01:44:37.465Z,12.07
2023-05-16T01:47:09.643Z,12.98
2023-05-16T01:49:44.143Z,12.32
2023-05-16T01:52:22.171Z,10.07
2023-05-16T01:54:53.301Z,11.43
2023-05-16T01:59:48.686Z,10.30
2023-05-16T02:02:18.430Z,10.50
2023-05-16T02:04:44.920Z,10.02
2023-05-16T02:07:12.407Z,9.77
2023-05-16T02:09:38.844Z,9.80
2023-05-16T02:12:05.511Z,9.60
2023-05-16T02:14:31.916Z,10.57
2023-05-16T02:16:58.607Z,10.10
2023-05-16T02:19:25.102Z,9.25
2023-05-16T02:21:51.566Z,10.25
2023-05-16T02:24:17.954Z,9.55
2023-05-16T02:26:44.435Z,8.20
2023-05-16T02:29:11.107Z,9.65
2023-05-16T02:31:37.678Z,9.75
2023-05-16T02:34:04.179Z,10.38
2023-05-16T02:36:30.894Z,9.13
2023-05-16T02:38:57.358Z,9.23
2023-05-16T02:41:24.046Z,10.13
2023-05-16T02:43:50.510Z,9.85
2023-05-16T02:46:31.224Z,9.23
2023-05-16T02:48:57.887Z,9.18
2023-05-16T02:51:27.622Z,10.65
2023-05-16T02:53:56.940Z,10.10
2023-05-16T02:56:23.372Z,8.85
2023-05-16T02:58:50.060Z,8.07
2023-05-16T03:01:17.317Z,9.82
2023-05-16T03:03:43.854Z,9.25
2023-05-16T03:06:10.439Z,8.75
2023-05-16T03:08:36.926Z,8.57
2023-05-16T03:11:03.398Z,9.18
2023-05-16T03:13:30.202Z,9.38
2023-05-16T03:15:56.658Z,8.15
2023-05-16T03:18:23.179Z,8.27
2023-05-16T03:20:49.627Z,9.15
2023-05-16T03:23:16.102Z,7.93
2023-05-16T03:25:43.177Z,8.77
2023-05-16T03:28:09.747Z,9.07
2023-05-16T03:30:36.295Z,9.20
2023-05-16T03:33:03.828Z,10.88
2023-05-16T03:35:34.639Z,8.32
2023-05-16T03:38:01.258Z,8.05
2023-05-16T03:40:27.696Z,7.38
2023-05-16T03:42:54.120Z,8.02
2023-05-16T03:45:20.784Z,9.23
2023-05-16T03:47:49.059Z,7.90
2023-05-16T03:50:16.353Z,7.05
2023-05-16T03:52:42.828Z,8.50
2023-05-16T03:55:09.594Z,7.40
2023-05-16T03:57:38.366Z,9.13
2023-05-16T04:00:08.068Z,8.82
2023-05-16T04:02:34.682Z,9.52
2023-05-16T04:05:01.131Z,9.80
2023-05-16T04:07:27.648Z,10.05
2023-05-16T04:09:55.649Z,10.20
2023-05-16T04:12:23.069Z,10.23
2023-05-16T04:14:49.504Z,10.80
2023-05-16T04:17:16.054Z,9.48
2023-05-16T04:19:42.597Z,9.55
2023-05-16T04:22:09.041Z,8.95
2023-05-16T04:24:35.418Z,9.48
2023-05-16T04:27:02.139Z,9.90
2023-05-16T04:29:28.568Z,9.93
2023-05-16T04:31:55.087Z,9.05
2023-05-16T04:34:23.090Z,8.95
2023-05-16T04:36:49.471Z,8.50
2023-05-16T04:39:16.147Z,9.73
2023-05-16T04:41:42.561Z,8.93
2023-05-16T04:44:08.964Z,9.65
2023-05-16T04:46:35.433Z,8.75
2023-05-16T04:49:02.015Z,11.40
2023-05-16T04:51:28.554Z,8.68
2023-05-16T04:53:55.324Z,9.15
2023-05-16T04:56:22.388Z,10.07
2023-05-16T04:58:48.776Z,9.02
2023-05-16T05:01:15.980Z,9.18
2023-05-16T05:03:42.436Z,8.95
2023-05-16T05:06:08.838Z,9.27
2023-05-16T05:08:35.263Z,8.43
2023-05-16T05:11:01.786Z,8.88
2023-05-16T05:13:28.305Z,8.98
2023-05-16T05:15:54.747Z,9.75
2023-05-16T05:18:21.194Z,9.07
2023-05-16T05:20:47.753Z,8.90
2023-05-16T05:23:14.187Z,8.20
2023-05-16T05:25:40.807Z,10.45
2023-05-16T05:28:07.246Z,11.40
2023-05-16T05:30:33.655Z,10.50
2023-05-16T05:33:00.142Z,11.02
2023-05-16T05:35:27.049Z,10.30
2023-05-16T05:37:53.641Z,11.40
2023-05-16T05:40:20.071Z,10.20
2023-05-16T05:42:47.285Z,10.63
2023-05-16T05:45:16.072Z,11.23
2023-05-16T05:47:43.358Z,10.60
2023-05-16T05:50:13.393Z,11.10
2023-05-16T05:52:44.072Z,11.77
2023-05-16T05:55:10.564Z,10.90
2023-05-16T05:57:37.062Z,10.20
2023-05-16T06:00:05.082Z,10.90
2023-05-16T06:02:35.470Z,10.75
2023-05-16T06:05:05.347Z,12.57
2023-05-16T06:07:32.622Z,9.93
2023-05-16T06:10:08.583Z,9.82
2023-05-16T06:12:37.884Z,11.25
2023-05-16T06:15:14.066Z,10.82
2023-05-16T06:17:41.730Z,10.38
2023-05-16T06:20:08.563Z,10.35
2023-05-16T06:22:35.121Z,12.27
2023-05-16T06:25:03.025Z,12.25
2023-05-16T06:27:30.205Z,12.18
2023-05-16T06:29:57.630Z,12.65
2023-05-16T06:32:26.362Z,11.77
2023-05-16T06:34:53.396Z,13.90
2023-05-16T06:37:29.002Z,12.35
2023-05-16T06:40:02.898Z,11.77
2023-05-16T06:42:29.667Z,14.38
2023-05-16T06:44:56.151Z,12.73
2023-05-16T06:47:22.993Z,12.75
2023-05-16T06:49:51.295Z,10.30
2023-05-16T06:52:19.237Z,11.07
2023-05-16T06:54:50.746Z,10.00
2023-05-16T06:57:24.236Z,10.15
2023-05-16T06:59:51.574Z,9.15
2023-05-16T07:02:23.975Z,11.20
2023-05-16T07:04:53.125Z,10.90
2023-05-16T07:07:19.639Z,8.65
2023-05-16T07:09:46.151Z,8.15
2023-05-16T07:12:12.670Z,8.73
2023-05-16T07:14:39.371Z,7.50
2023-05-16T07:17:06.064Z,6.72
2023-05-16T07:19:32.705Z,6.50
2023-05-16T07:21:59.699Z,4.75
2023-05-16T07:24:26.296Z,3.95
2023-05-16T07:26:52.790Z,3.95
2023-05-16T07:29:19.338Z,3.35
2023-05-16T07:31:46.256Z,2.40
2023-05-16T07:34:12.864Z,2.35
2023-05-16T07:36:39.359Z,2.97
2023-05-16T07:39:11.406Z,2.55
2023-05-16T07:41:37.905Z,2.85
2023-05-16T07:44:04.400Z,3.30
2023-05-16T07:46:31.306Z,3.40
2023-05-16T07:48:58.222Z,3.35
2023-05-16T07:51:24.785Z,2.75
2023-05-16T07:53:52.009Z,2.92
2023-05-16T07:56:18.587Z,2.63
2023-05-16T07:58:45.268Z,2.35
2023-05-16T08:01:12.117Z,2.15
2023-05-16T08:03:38.756Z,2.85
2023-05-16T08:06:05.659Z,2.53
2023-05-16T08:08:32.297Z,2.42
2023-05-16T08:10:58.743Z,2.97
2023-05-16T08:13:25.226Z,2.50
2023-05-16T08:15:51.963Z,3.13
2023-05-16T08:18:20.716Z,3.40
2023-05-16T08:20:48.600Z,2.83
2023-05-16T08:23:15.175Z,2.78
2023-05-16T08:25:41.843Z,2.50
2023-05-16T08:28:08.505Z,1.80
2023-05-16T08:30:34.971Z,2.13
2023-05-16T08:33:04.952Z,1.75
2023-05-16T08:35:31.790Z,2.45
2023-05-16T08:37:58.325Z,2.20
2023-05-16T08:40:27.196Z,2.85
2023-05-16T08:42:54.292Z,1.80
2023-05-16T08:45:22.601Z,2.45
2023-05-16T08:47:51.647Z,2.67
2023-05-16T08:50:18.518Z,1.85
2023-05-16T08:52:48.494Z,3.08
2023-05-16T08:55:16.141Z,2.10
2023-05-16T08:57:43.224Z,1.83
2023-05-16T09:00:13.350Z,2.03
2023-05-16T09:02:44.340Z,2.87
2023-05-16T09:05:15.623Z,2.83
2023-05-16T09:10:10.845Z,4.65
2023-05-16T09:12:39.469Z,2.55
2023-05-16T09:15:07.497Z,2.10
2023-05-16T09:17:45.600Z,2.10
2023-05-16T09:20:20.102Z,2.50
2023-05-16T09:22:52.809Z,2.25
2023-05-16T09:25:29.206Z,2.75
2023-05-16T09:27:59.464Z,4.47
2023-05-16T09:30:31.411Z,2.60
2023-05-16T09:32:58.965Z,2.50
2023-05-16T09:37:55.894Z,2.63
2023-05-16T09:40:25.368Z,2.53
2023-05-16T09:43:09.722Z,2.10
2023-05-16T09:45:36.652Z,2.50
2023-05-16T09:48:10.774Z,4.15
2023-05-16T09:50:37.957Z,3.15
2023-05-16T09:53:05.202Z,2.75
2023-05-16T09:55:32.350Z,2.55
2023-05-16T09:57:58.834Z,2.55
2023-05-16T10:00:33.256Z,2.55
2023-05-16T10:03:04.274Z,3.53
2023-05-16T10:05:31.694Z,2.75
2023-05-16T10:07:58.394Z,2.80
2023-05-16T10:10:25.221Z,3.13
2023-05-16T10:12:53.005Z,3.03
2023-05-16T10:15:20.879Z,3.22
2023-05-16T10:17:53.181Z,2.67
2023-05-16T10:20:21.257Z,2.83
2023-05-16T10:22:50.298Z,2.63
2023-05-16T10:25:29.137Z,2.83
2023-05-16T10:27:56.395Z,3.10
2023-05-16T10:30:22.864Z,3.50
2023-05-16T10:32:56.813Z,3.17
2023-05-16T10:35:25.966Z,3.60
2023-05-16T10:37:53.338Z,4.15
2023-05-16T10:40:22.065Z,4.00
2023-05-16T10:43:04.531Z,3.67
2023-05-16T10:45:43.819Z,3.80
2023-05-16T10:48:15.805Z,4.97
2023-05-16T10:50:48.105Z,3.92
2023-05-16T10:53:31.933Z,3.90
2023-05-16T10:56:10.802Z,4.82
2023-05-16T10:58:44.149Z,4.53
2023-05-16T11:01:25.153Z,4.72
2023-05-16T11:04:02.728Z,5.05
2023-05-16T11:06:57.933Z,5.47
2023-05-16T11:09:27.878Z,4.70
2023-05-16T11:11:57.597Z,4.03
2023-05-16T11:14:26.883Z,5.10
2023-05-16T11:17:34.767Z,5.07
2023-05-16T11:20:04.890Z,4.50
2023-05-16T11:22:41.367Z,5.18
2023-05-16T11:25:09.465Z,4.10
2023-05-16T11:27:47.742Z,4.45
2023-05-16T11:30:17.655Z,4.40
2023-05-16T11:32:45.935Z,3.65
2023-05-16T11:35:15.291Z,4.22
2023-05-16T11:37:42.789Z,4.85
2023-05-16T11:40:11.476Z,4.70
2023-05-16T11:42:51.946Z,4.25
2023-05-16T11:45:31.624Z,5.97
2023-05-16T11:48:03.011Z,6.53
2023-05-16T11:50:30.866Z,5.28
2023-05-16T11:52:57.958Z,5.05
2023-05-16T11:58:02.073Z,5.47
2023-05-16T12:00:35.750Z,4.18
2023-05-16T12:03:04.587Z,5.43
2023-05-16T12:05:41.229Z,4.55
2023-05-16T12:08:12.810Z,5.30
2023-05-16T12:10:39.354Z,6.28
2023-05-16T12:13:06.055Z,8.38
2023-05-16T12:15:33.678Z,4.82
2023-05-16T12:18:00.399Z,4.55
2023-05-16T12:20:27.554Z,4.35
2023-05-16T12:22:58.368Z,4.75
2023-05-16T12:25:50.061Z,3.95
2023-05-16T12:28:16.725Z,3.42
2023-05-16T12:30:49.266Z,3.22
2023-05-16T12:33:17.146Z,3.25
2023-05-16T12:35:45.900Z,4.03
2023-05-16T12:38:18.359Z,3.03
2023-05-16T12:40:46.195Z,2.85
2023-05-16T12:43:23.372Z,3.92
2023-05-16T12:45:54.959Z,3.08
2023-05-16T12:48:22.952Z,3.75
2023-05-16T12:50:52.426Z,48.20
2023-05-16T12:53:19.491Z,7.85
2023-05-16T12:55:46.661Z,33.47
2023-05-16T12:58:13.504Z,29.92
2023-05-16T13:00:46.416Z,10.07
2023-05-16T13:03:13.015Z,5.45
2023-05-16T13:05:39.665Z,25.33
2023-05-16T13:08:07.577Z,22.67
2023-05-16T13:10:34.104Z,15.43
2023-05-16T13:13:00.642Z,4.47
2023-05-16T13:15:27.631Z,5.38
2023-05-16T13:17:54.805Z,4.30
2023-05-16T13:20:21.783Z,4.15
2023-05-16T13:22:48.496Z,4.60
2023-05-16T13:25:15.033Z,4.18
2023-05-16T13:27:41.785Z,3.88
2023-05-16T13:30:08.822Z,3.70
2023-05-16T13:32:35.584Z,4.05
2023-05-16T13:35:04.059Z,4.28
2023-05-16T13:37:30.871Z,5.10
2023-05-16T13:39:57.345Z,3.88
2023-05-16T13:42:23.921Z,4.00
2023-05-16T13:44:51.536Z,4.32
2023-05-16T13:47:19.529Z,4.25
2023-05-16T13:49:46.163Z,4.32
2023-05-16T13:52:12.711Z,4.35
2023-05-16T13:54:41.980Z,3.85
2023-05-16T13:57:08.784Z,4.40
2023-05-16T14:00:03.503Z,4.07
2023-05-16T14:02:22.251Z,4.20
2023-05-16T14:04:49.902Z,4.97
2023-05-16T14:07:16.713Z,4.53
2023-05-16T14:09:44.642Z,3.90
2023-05-16T14:12:11.676Z,4.78
2023-05-16T14:14:38.158Z,3.88
2023-05-16T14:17:04.951Z,4.28
2023-05-16T14:19:35.611Z,3.63
2023-05-16T14:22:04.102Z,3.80
2023-05-16T14:24:32.315Z,4.55
2023-05-16T14:27:00.479Z,4.30
2023-05-16T14:29:28.535Z,4.43
2023-05-16T14:31:56.587Z,4.43
2023-05-16T14:34:23.865Z,4.50
2023-05-16T14:36:51.507Z,4.72
2023-05-16T14:39:18.075Z,3.60
2023-05-16T14:41:46.106Z,3.88
2023-05-16T14:44:12.914Z,4.45
2023-05-16T14:46:39.728Z,4.95
2023-05-16T14:49:06.337Z,3.88
2023-05-16T14:51:33.192Z,4.13
2023-05-16T14:54:00.701Z,5.72
2023-05-16T14:56:28.822Z,4.20
2023-05-16T14:58:56.970Z,3.55
2023-05-16T15:01:25.299Z,4.63
2023-05-16T15:03:55.947Z,4.22
2023-05-16T15:06:23.182Z,4.32
2023-05-16T15:08:51.050Z,3.90
2023-05-16T15:11:17.924Z,4.68
2023-05-16T15:13:44.862Z,5.15
2023-05-16T15:16:12.439Z,3.97
2023-05-16T15:18:39.358Z,4.85
2023-05-16T15:21:07.577Z,4.18
2023-05-16T15:23:34.721Z,4.53
2023-05-16T15:26:02.224Z,4.50
2023-05-16T15:28:29.669Z,3.80
2023-05-16T15:30:57.034Z,4.00
2023-05-16T15:33:23.983Z,4.18
2023-05-16T15:35:52.918Z,4.43
2023-05-16T15:38:20.476Z,4.72
2023-05-16T15:40:58.144Z,4.07
2023-05-16T15:43:37.958Z,3.75
2023-05-16T15:46:06.701Z,3.47
2023-05-16T15:48:33.525Z,4.55
2023-05-16T15:51:00.082Z,3.72
2023-05-16T15:53:26.677Z,3.53
2023-05-16T15:55:53.367Z,4.15
2023-05-16T15:58:21.983Z,4.15
2023-05-16T16:00:49.346Z,3.80
2023-05-16T16:03:15.901Z,3.45
2023-05-16T16:05:42.799Z,3.83
2023-05-16T16:08:09.668Z,5.43
2023-05-16T16:10:37.730Z,3.55
2023-05-16T16:13:04.839Z,4.93
2023-05-16T16:15:36.951Z,5.22
2023-05-16T16:18:03.940Z,4.07
2023-05-16T16:20:30.533Z,3.05
2023-05-16T16:22:59.559Z,3.42
2023-05-16T16:25:29.771Z,3.67
2023-05-16T16:27:56.811Z,4.38
2023-05-16T16:30:23.253Z,3.08
2023-05-16T16:32:49.935Z,4.50
2023-05-16T16:35:16.914Z,3.83
2023-05-16T16:37:54.520Z,4.90
2023-05-16T16:40:32.194Z,4.10
2023-05-16T16:42:58.856Z,3.90
2023-05-16T16:45:26.910Z,3.40
2023-05-16T16:47:55.897Z,4.72
2023-05-16T16:50:26.468Z,5.35
2023-05-16T16:52:57.454Z,2.92
2023-05-16T16:55:24.275Z,4.78
2023-05-16T16:58:02.376Z,4.30
2023-05-16T17:00:38.094Z,3.85
2023-05-16T17:03:05.083Z,3.10
2023-05-16T17:05:31.690Z,4.35
2023-05-16T17:07:58.245Z,4.43
2023-05-16T17:10:25.015Z,3.13
2023-05-16T17:12:51.907Z,3.65
2023-05-16T17:15:18.511Z,3.38
2023-05-16T17:17:45.941Z,4.88
2023-05-16T17:20:13.191Z,4.00
2023-05-16T17:22:41.209Z,4.45
2023-05-16T17:25:08.439Z,3.75
2023-05-16T17:27:34.942Z,4.45
2023-05-16T17:30:01.595Z,3.67
2023-05-16T17:32:33.916Z,3.60
2023-05-16T17:35:03.802Z,3.83
2023-05-16T17:37:30.490Z,4.35
2023-05-16T17:39:57.494Z,4.60
2023-05-16T17:42:26.065Z,4.70
2023-05-16T17:44:53.651Z,4.18
2023-05-16T17:47:20.680Z,3.05
2023-05-16T17:49:47.545Z,3.80
2023-05-16T17:52:15.016Z,4.15
2023-05-16T17:54:41.549Z,4.65
2023-05-16T17:57:09.187Z,5.25
2023-05-16T17:59:35.622Z,5.45
2023-05-16T18:02:02.142Z,6.15
2023-05-16T18:04:28.691Z,5.32
2023-05-16T18:06:56.176Z,4.80
2023-05-16T18:09:24.002Z,3.72
2023-05-16T18:11:51.330Z,4.03
2023-05-16T18:14:17.871Z,4.13
2023-05-16T18:16:44.628Z,4.20
2023-05-16T18:19:11.636Z,4.40
2023-05-16T18:21:39.526Z,4.00
2023-05-16T18:24:08.393Z,4.50
2023-05-16T18:26:35.042Z,3.83
2023-05-16T18:29:10.930Z,4.00
2023-05-16T18:31:47.440Z,4.63
2023-05-16T18:34:14.409Z,4.65
2023-05-16T18:36:40.917Z,3.95
2023-05-16T18:39:08.828Z,4.75
2023-05-16T18:41:35.325Z,4.68
2023-05-16T18:44:01.788Z,4.80
2023-05-16T18:46:28.246Z,4.18
2023-05-16T18:48:57.781Z,4.07
2023-05-16T18:51:25.169Z,4.50
2023-05-16T18:53:51.840Z,4.47
2023-05-16T18:56:26.612Z,6.57
2023-05-16T18:58:53.659Z,6.10
2023-05-16T19:01:22.392Z,5.57
2023-05-16T19:03:49.777Z,4.97
2023-05-16T19:06:16.303Z,5.80
2023-05-16T19:08:47.892Z,4.35
2023-05-16T19:11:15.929Z,5.40
2023-05-16T19:13:42.496Z,5.10
2023-05-16T19:16:09.189Z,4.68
2023-05-16T19:18:35.958Z,6.55
2023-05-16T19:21:03.547Z,6.22
2023-05-16T19:23:30.268Z,5.97
2023-05-16T19:25:57.106Z,5.28
2023-05-16T19:28:24.665Z,6.03
2023-05-16T19:30:51.256Z,6.30
2023-05-16T19:33:17.754Z,6.97
2023-05-16T19:35:44.287Z,8.27
2023-05-16T19:38:10.811Z,6.93
2023-05-16T19:40:37.339Z,5.80
2023-05-16T19:43:03.826Z,5.03
2023-05-16T19:45:30.626Z,5.90
2023-05-16T19:47:57.443Z,6.40
2023-05-16T19:50:24.061Z,5.55
2023-05-16T19:52:50.480Z,6.10
2023-05-16T19:55:17.001Z,7.45
2023-05-16T19:57:43.513Z,6.30
2023-05-16T20:00:10.628Z,5.88
2023-05-16T20:02:37.132Z,6.60
2023-05-16T20:05:04.545Z,8.50
2023-05-16T20:07:31.061Z,8.23
2023-05-16T20:09:57.537Z,7.25
2023-05-16T20:12:24.001Z,7.40
2023-05-16T20:14:51.659Z,6.30
2023-05-16T20:17:18.153Z,6.70
2023-05-16T20:19:46.287Z,7.10
2023-05-16T20:22:12.779Z,6.85
2023-05-16T20:24:39.457Z,7.75
2023-05-16T20:27:05.968Z,7.03
2023-05-16T20:29:33.918Z,6.32
2023-05-16T20:32:00.650Z,6.93
2023-05-16T20:34:27.899Z,6.65
2023-05-16T20:36:54.452Z,6.85
2023-05-16T20:39:20.953Z,6.90
2023-05-16T20:41:47.596Z,7.32
2023-05-16T20:44:15.286Z,7.45
2023-05-16T20:46:43.111Z,7.57
2023-05-16T20:49:09.963Z,11.27
2023-05-16T20:51:36.501Z,9.65
2023-05-16T20:54:03.108Z,10.15
2023-05-16T20:56:29.787Z,8.25
2023-05-16T20:58:56.219Z,8.85
2023-05-16T21:01:22.739Z,10.43
2023-05-16T21:03:49.273Z,9.05
2023-05-16T21:06:15.901Z,8.00
2023-05-16T21:08:42.407Z,8.48
2023-05-16T21:11:08.858Z,7.63
2023-05-16T21:13:35.377Z,7.40
2023-05-16T21:16:01.915Z,7.88
2023-05-16T21:18:28.414Z,7.03
2023-05-16T21:20:55.014Z,8.20
2023-05-16T21:23:21.517Z,8.48
2023-05-16T21:25:47.963Z,8.07
2023-05-16T21:28:14.482Z,7.47
2023-05-16T21:30:41.037Z,7.47
2023-05-16T21:33:07.578Z,8.35
2023-05-16T21:35:34.076Z,8.32
2023-05-16T21:38:00.714Z,7.53
2023-05-16T21:40:28.738Z,8.48
2023-05-16T21:42:55.318Z,8.63
2023-05-16T21:45:21.822Z,7.10
2023-05-16T21:47:48.579Z,6.25
2023-05-16T21:50:15.388Z,7.07
2023-05-16T21:52:42.081Z,5.53
2023-05-16T21:55:08.959Z,6.07
2023-05-16T21:57:35.547Z,5.75
2023-05-16T22:00:06.518Z,6.25
2023-05-16T22:02:33.614Z,6.85
2023-05-16T22:05:00.293Z,5.63
2023-05-16T22:07:30.066Z,5.20
2023-05-16T22:09:56.928Z,6.13
2023-05-16T22:12:24.028Z,5.85
2023-05-16T22:14:51.296Z,5.07
2023-05-16T22:17:19.465Z,5.18
2023-05-16T22:19:46.754Z,5.72
2023-05-16T22:22:15.514Z,6.28
2023-05-16T22:24:42.153Z,5.45
2023-05-16T22:27:08.612Z,5.75
2023-05-16T22:29:38.160Z,6.28
2023-05-16T22:32:06.961Z,5.18
2023-05-16T22:34:34.240Z,6.20
2023-05-16T22:37:00.726Z,5.85
2023-05-16T22:39:27.269Z,5.40
2023-05-16T22:41:53.776Z,5.85
2023-05-16T22:44:20.271Z,5.10
2023-05-16T22:46:46.706Z,4.95
2023-05-16T22:49:13.275Z,5.57
2023-05-16T22:51:39.772Z,4.85
2023-05-16T22:54:06.325Z,5.82
2023-05-16T22:56:32.754Z,4.85
2023-05-16T22:58:59.205Z,5.45
2023-05-16T23:01:25.677Z,4.43
2023-05-16T23:03:52.212Z,4.40
2023-05-16T23:06:18.663Z,4.22
2023-05-16T23:08:45.161Z,4.35
2023-05-16T23:11:11.782Z,4.05
2023-05-16T23:13:38.236Z,4.43
2023-05-16T23:16:04.945Z,4.35
2023-05-16T23:18:31.552Z,4.20
2023-05-16T23:20:58.147Z,4.05
2023-05-16T23:23:24.676Z,4.57
2023-05-16T23:25:51.161Z,5.10
2023-05-16T23:28:18.892Z,3.95
2023-05-16T23:30:45.577Z,4.03
2023-05-16T23:33:14.074Z,4.40
2023-05-16T23:35:40.909Z,5.90
2023-05-16T23:38:07.383Z,4.53
2023-05-16T23:40:33.877Z,4.25
2023-05-16T23:43:00.347Z,4.93
2023-05-16T23:45:27.995Z,4.32
2023-05-16T23:47:54.630Z,3.42
2023-05-16T23:50:22.092Z,3.80
2023-05-16T23:52:48.580Z,3.70
2023-05-16T23:55:16.406Z,3.42
2023-05-16T23:57:42.836Z,3.75
